createdAt,value
2022-10-14T00:01:24.456Z,88.79
2022-10-14T00:03:51.767Z,87.93
2022-10-14T00:06:24.941Z,87.07
2022-10-14T00:08:52.359Z,87.81
2022-10-14T00:11:28.496Z,88.47
2022-10-14T00:13:59.844Z,89.15
2022-10-14T00:16:35.707Z,90.58
2022-10-14T00:19:04.440Z,90.96
2022-10-14T00:21:32.649Z,89.91
2022-10-14T00:23:59.695Z,90.74
2022-10-14T00:26:38.298Z,91.88
2022-10-14T00:29:11.193Z,90.31
2022-10-14T00:31:38.181Z,90.54
2022-10-14T00:34:05.237Z,90.04
2022-10-14T00:36:32.425Z,89.10
2022-10-14T00:38:59.403Z,89.73
2022-10-14T00:41:31.373Z,89.38
2022-10-14T00:44:27.022Z,89.99
2022-10-14T00:46:55.524Z,91.27
2022-10-14T00:49:36.377Z,90.18
2022-10-14T00:52:13.414Z,88.86
2022-10-14T00:55:10.692Z,90.06
2022-10-14T00:57:39.033Z,88.55
2022-10-14T01:00:16.008Z,87.51
2022-10-14T01:02:43.231Z,89.17
2022-10-14T01:05:13.725Z,89.65
2022-10-14T01:08:09.073Z,89.68
2022-10-14T01:10:56.920Z,88.14
2022-10-14T01:13:47.864Z,87.45
2022-10-14T01:16:56.869Z,87.04
2022-10-14T01:20:19.755Z,88.15
2022-10-14T01:23:14.967Z,88.03
2022-10-14T01:26:41.817Z,88.23
2022-10-14T01:29:45.126Z,89.20
2022-10-14T01:32:55.218Z,88.46
2022-10-14T01:35:42.027Z,88.64
2022-10-14T01:38:25.741Z,88.57
2022-10-14T01:41:19.767Z,87.47
2022-10-14T01:43:50.737Z,89.39
2022-10-14T01:46:21.921Z,86.94
2022-10-14T01:48:59.376Z,86.72
2022-10-14T01:51:41.196Z,87.77
2022-10-14T01:54:15.214Z,87.44
2022-10-14T01:56:45.117Z,87.83
2022-10-14T01:59:14.201Z,88.72
2022-10-14T02:01:41.354Z,89.27
2022-10-14T02:04:21.203Z,90.90
2022-10-14T02:07:09.310Z,90.16
2022-10-14T02:10:21.149Z,89.80
2022-10-14T02:13:27.438Z,90.53
2022-10-14T02:16:29.150Z,90.50
2022-10-14T02:19:21.216Z,90.48
2022-10-14T02:22:38.065Z,90.38
2022-10-14T02:25:20.849Z,91.31
2022-10-14T02:27:50.464Z,90.83
2022-10-14T02:30:18.946Z,90.73
2022-10-14T02:32:47.669Z,90.73
2022-10-14T02:35:18.087Z,91.00
2022-10-14T02:37:48.254Z,91.30
2022-10-14T02:40:26.091Z,92.15
2022-10-14T02:42:53.062Z,91.23
2022-10-14T02:45:20.625Z,91.14
2022-10-14T02:47:47.938Z,89.04
2022-10-14T02:50:14.922Z,90.23
2022-10-14T02:52:41.851Z,90.62
2022-10-14T02:55:09.113Z,88.81
2022-10-14T02:57:36.058Z,89.40
2022-10-14T03:00:05.429Z,89.48
2022-10-14T03:02:32.477Z,88.91
2022-10-14T03:04:59.435Z,89.56
2022-10-14T03:07:26.779Z,88.44
2022-10-14T03:09:53.703Z,89.04
2022-10-14T03:12:21.023Z,87.18
2022-10-14T03:14:48.121Z,87.41
2022-10-14T03:17:17.174Z,89.60
2022-10-14T03:19:44.139Z,90.28
2022-10-14T03:22:11.041Z,90.71
2022-10-14T03:24:37.995Z,90.87
2022-10-14T03:27:05.005Z,91.27
2022-10-14T03:29:31.911Z,90.12
2022-10-14T03:31:58.814Z,89.85
2022-10-14T03:34:25.943Z,90.95
2022-10-14T03:36:52.882Z,90.42
2022-10-14T03:39:20.646Z,90.58
2022-10-14T03:41:47.608Z,91.10
2022-10-14T03:44:14.706Z,91.20
2022-10-14T03:46:41.640Z,91.53
2022-10-14T03:49:08.544Z,92.11
2022-10-14T03:51:35.558Z,92.68
2022-10-14T03:54:02.502Z,91.45
2022-10-14T03:56:29.430Z,92.10
2022-10-14T03:58:56.392Z,92.32
2022-10-14T04:01:23.434Z,91.72
2022-10-14T04:03:50.973Z,89.34
2022-10-14T04:06:18.196Z,90.54
2022-10-14T04:08:45.137Z,91.00
2022-10-14T04:11:12.030Z,90.32
2022-10-14T04:13:39.004Z,91.42
2022-10-14T04:16:09.617Z,90.77
2022-10-14T04:18:37.993Z,92.01
2022-10-14T04:21:11.015Z,91.40
2022-10-14T04:23:38.492Z,92.10
2022-10-14T04:26:08.088Z,90.10
2022-10-14T04:28:35.756Z,90.53
2022-10-14T04:31:04.114Z,91.06
2022-10-14T04:33:31.138Z,91.21
2022-10-14T04:36:06.983Z,92.10
2022-10-14T04:38:34.245Z,91.72
2022-10-14T04:41:01.559Z,91.29
2022-10-14T04:43:28.566Z,91.51
2022-10-14T04:45:55.536Z,91.39
2022-10-14T04:48:22.866Z,90.36
2022-10-14T04:50:54.217Z,91.16
2022-10-14T04:53:22.408Z,90.59
2022-10-14T04:55:51.897Z,90.51
2022-10-14T04:58:18.922Z,89.95
2022-10-14T05:00:46.074Z,90.90
2022-10-14T05:03:12.994Z,90.83
2022-10-14T05:05:40.044Z,89.24
2022-10-14T05:08:07.034Z,89.10
2022-10-14T05:10:34.336Z,89.49
2022-10-14T05:13:01.356Z,89.43
2022-10-14T05:15:29.024Z,89.18
2022-10-14T05:17:55.974Z,89.78
2022-10-14T05:20:22.990Z,90.12
2022-10-14T05:22:50.206Z,90.37
2022-10-14T05:25:17.273Z,90.36
2022-10-14T05:27:44.362Z,91.14
2022-10-14T05:30:12.313Z,91.52
2022-10-14T05:32:39.268Z,92.12
2022-10-14T05:35:06.566Z,91.40
2022-10-14T05:37:41.022Z,89.91
2022-10-14T05:40:10.311Z,91.07
2022-10-14T05:42:37.610Z,91.08
2022-10-14T05:45:06.207Z,91.05
2022-10-14T05:47:33.938Z,89.90
2022-10-14T05:50:03.344Z,90.50
2022-10-14T05:52:34.208Z,90.15
2022-10-14T05:55:01.904Z,90.08
2022-10-14T05:57:29.455Z,90.31
2022-10-14T05:59:57.209Z,90.98
2022-10-14T06:02:24.516Z,90.65
2022-10-14T06:04:52.023Z,90.55
2022-10-14T06:07:19.878Z,91.29
2022-10-14T06:09:47.233Z,89.54
2022-10-14T06:12:14.952Z,91.14
2022-10-14T06:14:41.911Z,91.08
2022-10-14T06:17:08.854Z,90.91
2022-10-14T06:19:35.832Z,89.81
2022-10-14T06:22:03.581Z,90.20
2022-10-14T06:24:33.131Z,88.70
2022-10-14T06:27:00.048Z,89.82
2022-10-14T06:29:31.210Z,90.39
2022-10-14T06:31:58.159Z,89.35
2022-10-14T06:34:25.122Z,88.54
2022-10-14T06:36:52.080Z,89.44
2022-10-14T06:39:19.140Z,88.48
2022-10-14T06:41:46.103Z,88.85
2022-10-14T06:44:15.461Z,88.10
2022-10-14T06:46:42.758Z,88.97
2022-10-14T06:49:09.892Z,87.94
2022-10-14T06:51:38.787Z,88.24
2022-10-14T06:54:06.220Z,87.41
2022-10-14T06:56:34.407Z,88.33
2022-10-14T06:59:01.423Z,88.51
2022-10-14T07:01:28.389Z,88.45
2022-10-14T07:03:56.732Z,87.58
2022-10-14T07:06:24.314Z,87.64
2022-10-14T07:08:51.236Z,89.25
2022-10-14T07:11:18.198Z,87.74
2022-10-14T07:13:45.973Z,88.45
2022-10-14T07:16:12.917Z,88.36
2022-10-14T07:18:39.857Z,89.38
2022-10-14T07:21:08.022Z,90.09
2022-10-14T07:23:34.959Z,89.60
2022-10-14T07:26:02.342Z,89.35
2022-10-14T07:28:29.799Z,89.03
2022-10-14T07:31:08.852Z,88.56
2022-10-14T07:33:38.878Z,87.62
2022-10-14T07:36:15.034Z,87.70
2022-10-14T07:38:44.953Z,87.87
2022-10-14T07:41:20.487Z,87.00
2022-10-14T07:44:06.064Z,87.40
2022-10-14T07:46:36.845Z,87.24
2022-10-14T07:49:16.467Z,88.08
2022-10-14T07:51:45.336Z,87.13
2022-10-14T07:54:33.401Z,85.36
2022-10-14T07:57:00.452Z,87.03
2022-10-14T07:59:27.374Z,86.41
2022-10-14T08:01:56.589Z,87.60
2022-10-14T08:04:25.310Z,86.76
2022-10-14T08:06:52.992Z,86.21
2022-10-14T08:09:20.114Z,85.09
2022-10-14T08:11:47.814Z,85.55
2022-10-14T08:14:14.918Z,84.05
2022-10-14T08:16:42.000Z,86.49
2022-10-14T08:19:14.654Z,86.35
2022-10-14T08:21:43.556Z,83.22
2022-10-14T08:24:11.365Z,85.79
2022-10-14T08:26:55.034Z,85.09
2022-10-14T08:29:25.592Z,85.55
2022-10-14T08:31:54.093Z,86.36
2022-10-14T08:34:21.730Z,85.98
2022-10-14T08:36:49.224Z,85.98
2022-10-14T08:39:19.405Z,85.89
2022-10-14T08:42:26.949Z,85.58
2022-10-14T08:45:21.152Z,84.94
2022-10-14T08:47:48.692Z,83.85
2022-10-14T08:50:40.527Z,84.30
2022-10-14T08:53:41.569Z,82.86
2022-10-14T08:56:11.435Z,81.37
2022-10-14T08:58:53.776Z,81.46
2022-10-14T09:01:29.606Z,82.77
2022-10-14T09:04:13.841Z,81.73
2022-10-14T09:06:46.657Z,80.95
2022-10-14T09:09:44.602Z,79.07
2022-10-14T09:12:21.779Z,81.89
2022-10-14T09:15:06.392Z,81.18
2022-10-14T09:18:21.360Z,79.97
2022-10-14T09:20:49.000Z,80.26
2022-10-14T09:23:24.485Z,79.99
2022-10-14T09:26:11.507Z,78.66
2022-10-14T09:28:43.527Z,77.88
2022-10-14T09:31:14.390Z,76.66
2022-10-14T09:33:43.006Z,75.88
2022-10-14T09:36:21.906Z,74.15
2022-10-14T09:38:52.722Z,75.48
2022-10-14T09:41:31.237Z,73.32
2022-10-14T09:44:25.836Z,70.66
2022-10-14T09:47:02.278Z,75.13
2022-10-14T09:49:46.311Z,74.30
2022-10-14T09:52:31.507Z,72.22
2022-10-14T09:55:01.354Z,72.50
2022-10-14T09:57:28.971Z,73.38
2022-10-14T10:00:01.719Z,71.69
2022-10-14T10:02:42.559Z,72.24
2022-10-14T10:05:34.787Z,71.15
2022-10-14T10:08:14.015Z,70.75
2022-10-14T10:10:41.847Z,71.57
2022-10-14T10:13:44.588Z,67.89
2022-10-14T10:16:25.380Z,68.87
2022-10-14T10:18:55.969Z,65.85
2022-10-14T10:21:30.139Z,66.38
2022-10-14T10:24:03.838Z,66.55
2022-10-14T10:26:35.710Z,66.62
2022-10-14T10:29:05.680Z,66.31
2022-10-14T10:32:09.230Z,66.42
2022-10-14T10:35:14.834Z,65.50
2022-10-14T10:38:15.237Z,66.16
2022-10-14T10:41:19.864Z,66.07
2022-10-14T10:44:26.605Z,65.71
2022-10-14T10:47:15.526Z,66.17
2022-10-14T10:50:15.518Z,68.05
2022-10-14T10:53:17.283Z,68.05
2022-10-14T10:56:07.446Z,66.99
2022-10-14T11:02:51.494Z,66.29
2022-10-14T11:05:52.373Z,66.07
2022-10-14T11:09:23.303Z,66.60
2022-10-14T11:12:12.817Z,66.33
2022-10-14T11:15:10.501Z,66.39
2022-10-14T11:18:03.041Z,66.28
2022-10-14T11:21:13.812Z,68.58
2022-10-14T11:24:28.246Z,68.12
2022-10-14T11:27:19.740Z,65.87
2022-10-14T11:30:32.488Z,67.72
2022-10-14T11:33:18.046Z,67.75
2022-10-14T11:36:31.463Z,67.30
2022-10-14T11:39:50.119Z,66.92
2022-10-14T11:42:39.874Z,66.97
2022-10-14T11:45:50.758Z,67.44
2022-10-14T11:48:41.083Z,67.91
2022-10-14T11:51:47.369Z,67.94
2022-10-14T11:54:17.448Z,69.42
2022-10-14T11:57:17.603Z,69.46
2022-10-14T12:00:21.018Z,68.18
2022-10-14T12:03:40.748Z,68.22
2022-10-14T12:06:34.272Z,68.18
2022-10-14T12:09:19.567Z,67.60
2022-10-14T12:12:14.586Z,66.61
2022-10-14T12:15:04.422Z,67.51
2022-10-14T12:17:56.529Z,67.20
2022-10-14T12:20:29.726Z,66.93
2022-10-14T12:22:58.466Z,66.42
2022-10-14T12:25:43.729Z,65.95
2022-10-14T12:28:16.982Z,66.81
2022-10-14T12:30:44.020Z,66.08
2022-10-14T12:33:22.626Z,68.47
2022-10-14T12:36:01.510Z,67.17
2022-10-14T12:38:31.368Z,65.95
2022-10-14T12:41:37.235Z,66.53
2022-10-14T12:44:14.027Z,67.98
2022-10-14T12:46:47.120Z,70.55
2022-10-14T12:49:35.080Z,67.43
2022-10-14T12:52:08.548Z,67.75
2022-10-14T12:54:45.782Z,67.91
2022-10-14T12:57:36.218Z,67.84
2022-10-14T13:00:25.732Z,67.82
2022-10-14T13:03:01.689Z,66.86
2022-10-14T13:05:45.172Z,68.76
2022-10-14T13:08:21.087Z,66.35
2022-10-14T13:11:02.304Z,67.33
2022-10-14T13:13:42.119Z,66.86
2022-10-14T13:16:21.384Z,66.79
2022-10-14T13:19:01.302Z,64.78
2022-10-14T13:21:37.055Z,64.37
2022-10-14T13:24:30.018Z,65.23
2022-10-14T13:27:06.506Z,65.51
2022-10-14T13:30:20.810Z,65.78
2022-10-14T13:33:00.161Z,65.91
2022-10-14T13:36:03.915Z,65.84
2022-10-14T13:38:39.174Z,65.60
2022-10-14T13:41:14.545Z,66.58
2022-10-14T13:43:43.227Z,67.47
2022-10-14T13:46:39.079Z,66.48
2022-10-14T13:52:01.736Z,64.75
2022-10-14T13:54:30.962Z,63.98
2022-10-14T14:00:40.224Z,63.97
2022-10-14T14:03:23.310Z,64.01
2022-10-14T14:05:51.270Z,64.62
2022-10-14T14:08:40.897Z,64.25
2022-10-14T14:11:17.980Z,64.71
2022-10-14T14:14:09.357Z,65.80
2022-10-14T14:19:29.602Z,66.42
2022-10-14T14:22:20.914Z,66.17
2022-10-14T14:24:49.284Z,65.56
2022-10-14T14:27:23.668Z,65.73
2022-10-14T14:29:53.965Z,65.57
2022-10-14T14:32:29.754Z,66.29
2022-10-14T14:34:57.197Z,66.52
2022-10-14T14:37:48.086Z,65.97
2022-10-14T14:40:30.060Z,66.49
2022-10-14T14:43:04.278Z,66.26
2022-10-14T14:45:42.298Z,66.97
2022-10-14T14:48:15.343Z,67.53
2022-10-14T14:50:45.146Z,67.14
2022-10-14T14:53:29.380Z,66.97
2022-10-14T14:55:56.194Z,67.40
2022-10-14T14:58:38.688Z,67.93
2022-10-14T15:01:21.893Z,66.86
2022-10-14T15:04:17.680Z,67.56
2022-10-14T15:07:21.800Z,67.25
2022-10-14T15:10:02.397Z,67.85
2022-10-14T15:12:41.890Z,67.66
2022-10-14T15:15:34.072Z,69.10
2022-10-14T15:18:26.112Z,68.62
2022-10-14T15:21:04.817Z,69.18
2022-10-14T15:23:46.050Z,68.17
2022-10-14T15:26:27.929Z,67.62
2022-10-14T15:29:08.300Z,69.12
2022-10-14T15:31:37.709Z,71.00
2022-10-14T15:34:06.409Z,71.78
2022-10-14T15:36:34.654Z,72.47
2022-10-14T15:39:02.481Z,73.41
2022-10-14T15:41:29.665Z,73.71
2022-10-14T15:43:56.791Z,73.22
2022-10-14T15:46:42.626Z,73.70
2022-10-14T15:49:25.394Z,73.00
2022-10-14T15:51:52.348Z,73.79
2022-10-14T15:54:19.296Z,74.73
2022-10-14T15:56:48.221Z,74.84
2022-10-14T15:59:16.262Z,75.24
2022-10-14T16:01:45.120Z,77.31
2022-10-14T16:04:24.106Z,77.78
2022-10-14T16:06:55.656Z,78.54
2022-10-14T16:09:27.730Z,78.44
2022-10-14T16:11:57.606Z,79.12
2022-10-14T16:14:28.051Z,80.25
2022-10-14T16:16:55.433Z,80.22
2022-10-14T16:19:22.656Z,80.29
2022-10-14T16:21:50.140Z,80.76
2022-10-14T16:24:20.863Z,80.59
2022-10-14T16:26:49.211Z,79.87
2022-10-14T16:29:18.197Z,79.42
2022-10-14T16:31:50.106Z,78.55
2022-10-14T16:34:19.066Z,78.46
2022-10-14T16:36:48.742Z,79.33
2022-10-14T16:39:16.775Z,80.64
2022-10-14T16:41:44.164Z,80.34
2022-10-14T16:44:24.710Z,79.98
2022-10-14T16:47:27.509Z,81.42
2022-10-14T16:49:54.718Z,81.91
2022-10-14T16:52:21.953Z,81.19
2022-10-14T16:54:49.244Z,82.70
2022-10-14T16:57:16.506Z,82.81
2022-10-14T16:59:43.470Z,81.90
2022-10-14T17:02:16.549Z,82.23
2022-10-14T17:04:48.035Z,81.52
2022-10-14T17:07:17.289Z,82.00
2022-10-14T17:09:44.264Z,82.59
2022-10-14T17:12:20.230Z,83.03
2022-10-14T17:14:47.175Z,82.00
2022-10-14T17:17:14.172Z,82.33
2022-10-14T17:19:41.360Z,81.86
2022-10-14T17:22:08.473Z,82.03
2022-10-14T17:24:36.637Z,81.89
2022-10-14T17:27:06.711Z,83.08
2022-10-14T17:29:34.057Z,82.47
2022-10-14T17:32:01.011Z,83.08
2022-10-14T17:34:27.928Z,82.13
2022-10-14T17:36:55.288Z,81.42
2022-10-14T17:39:27.616Z,81.54
2022-10-14T17:41:56.347Z,81.59
2022-10-14T17:44:23.519Z,81.87
2022-10-14T17:46:50.566Z,82.31
2022-10-14T17:49:17.565Z,82.39
2022-10-14T17:51:44.846Z,82.38
2022-10-14T17:54:12.652Z,82.86
2022-10-14T17:56:40.917Z,81.62
2022-10-14T17:59:12.048Z,82.08
2022-10-14T18:04:26.173Z,81.33
2022-10-14T18:06:54.069Z,81.68
2022-10-14T18:09:23.922Z,81.10
2022-10-14T18:14:41.983Z,82.12
2022-10-14T18:17:12.917Z,81.05
2022-10-14T18:19:47.228Z,82.01
2022-10-14T18:22:17.065Z,81.78
2022-10-14T18:24:44.507Z,81.47
2022-10-14T18:27:11.576Z,81.48
2022-10-14T18:29:39.245Z,80.95
2022-10-14T18:32:06.363Z,80.67
2022-10-14T18:34:33.682Z,81.67
2022-10-14T18:37:00.637Z,81.87
2022-10-14T18:39:27.649Z,82.23
2022-10-14T18:41:54.559Z,85.19
2022-10-14T18:44:21.560Z,85.74
2022-10-14T18:46:48.646Z,85.42
2022-10-14T18:49:15.611Z,85.04
2022-10-14T18:51:43.279Z,85.11
2022-10-14T18:54:20.901Z,84.16
2022-10-14T18:56:48.093Z,84.02
2022-10-14T18:59:21.963Z,83.44
2022-10-14T19:01:52.795Z,82.82
2022-10-14T19:04:25.431Z,82.79
2022-10-14T19:06:52.520Z,82.75
2022-10-14T19:09:24.528Z,82.89
2022-10-14T19:11:52.976Z,83.75
2022-10-14T19:14:22.370Z,83.04
2022-10-14T19:16:49.728Z,83.11
2022-10-14T19:19:19.855Z,80.96
2022-10-14T19:21:50.623Z,83.59
2022-10-14T19:24:17.668Z,82.71
2022-10-14T19:26:46.823Z,83.45
2022-10-14T19:29:15.347Z,83.19
2022-10-14T19:31:44.023Z,82.69
2022-10-14T19:34:15.457Z,83.32
2022-10-14T19:36:44.219Z,83.63
2022-10-14T19:39:15.667Z,85.06
2022-10-14T19:41:44.324Z,84.43
2022-10-14T19:44:13.237Z,85.35
2022-10-14T19:46:40.615Z,84.40
2022-10-14T19:49:07.640Z,86.07
2022-10-14T19:51:35.296Z,87.43
2022-10-14T19:54:03.164Z,86.90
2022-10-14T19:56:30.509Z,87.55
2022-10-14T19:58:59.516Z,87.17
2022-10-14T20:01:29.559Z,87.41
2022-10-14T20:03:58.809Z,86.80
2022-10-14T20:06:27.283Z,86.66
2022-10-14T20:08:54.170Z,88.09
2022-10-14T20:11:23.421Z,87.12
2022-10-14T20:13:50.677Z,85.93
2022-10-14T20:16:18.123Z,85.72
2022-10-14T20:18:45.171Z,85.52
2022-10-14T20:21:15.622Z,86.32
2022-10-14T20:23:43.410Z,86.34
2022-10-14T20:26:19.737Z,86.49
2022-10-14T20:28:47.544Z,84.75
2022-10-14T20:31:22.047Z,85.23
2022-10-14T20:33:49.497Z,84.76
2022-10-14T20:36:21.625Z,85.30
2022-10-14T20:38:49.590Z,85.15
2022-10-14T20:41:22.695Z,84.72
2022-10-14T20:43:50.510Z,84.60
2022-10-14T20:46:18.113Z,85.36
2022-10-14T20:48:46.459Z,85.17
2022-10-14T20:51:20.295Z,85.13
2022-10-14T20:53:47.304Z,84.84
2022-10-14T20:56:15.123Z,85.81
2022-10-14T20:58:43.043Z,85.82
2022-10-14T21:01:17.134Z,84.58
2022-10-14T21:03:47.518Z,85.75
2022-10-14T21:06:20.507Z,86.31
2022-10-14T21:08:49.740Z,85.44
2022-10-14T21:11:21.829Z,85.68
2022-10-14T21:13:56.374Z,85.13
2022-10-14T21:16:33.861Z,85.87
2022-10-14T21:19:07.654Z,85.87
2022-10-14T21:21:45.349Z,85.88
2022-10-14T21:24:16.756Z,84.94
2022-10-14T21:26:50.114Z,85.98
2022-10-14T21:29:21.518Z,85.73
2022-10-14T21:31:49.493Z,87.01
2022-10-14T21:34:16.498Z,86.53
2022-10-14T21:36:43.451Z,85.63
2022-10-14T21:39:16.849Z,85.51
2022-10-14T21:41:44.828Z,85.52
2022-10-14T21:44:17.628Z,86.72
2022-10-14T21:46:44.702Z,86.13
2022-10-14T21:49:12.581Z,86.47
2022-10-14T21:51:40.064Z,86.10
2022-10-14T21:54:07.292Z,86.31
2022-10-14T21:56:34.457Z,85.97
2022-10-14T21:59:01.403Z,86.64
2022-10-14T22:01:30.571Z,86.26
2022-10-14T22:04:05.162Z,85.42
2022-10-14T22:06:35.284Z,86.01
2022-10-14T22:09:06.542Z,85.32
2022-10-14T22:11:38.789Z,85.95
2022-10-14T22:14:13.868Z,86.30
2022-10-14T22:16:41.173Z,86.60
2022-10-14T22:19:08.387Z,85.88
2022-10-14T22:21:38.748Z,85.31
2022-10-14T22:26:40.465Z,85.93
2022-10-14T22:29:17.539Z,85.36
2022-10-14T22:31:45.834Z,85.01
2022-10-14T22:34:16.695Z,86.54
2022-10-14T22:36:44.398Z,86.51
2022-10-14T22:39:16.191Z,86.38
2022-10-14T22:41:43.355Z,87.64
2022-10-14T22:44:10.539Z,86.88
2022-10-14T22:46:39.419Z,86.37
2022-10-14T22:49:06.333Z,86.66
2022-10-14T22:51:38.046Z,86.95
2022-10-14T22:54:05.071Z,86.54
2022-10-14T22:56:32.810Z,87.48
2022-10-14T22:59:05.473Z,85.53
2022-10-14T23:01:32.983Z,86.59
2022-10-14T23:04:00.964Z,85.75
2022-10-14T23:06:28.947Z,86.01
2022-10-14T23:08:56.881Z,87.61
2022-10-14T23:11:25.266Z,87.20
2022-10-14T23:13:53.425Z,87.91
2022-10-14T23:16:27.596Z,86.94
2022-10-14T23:18:55.400Z,86.43
2022-10-14T23:21:33.392Z,86.27
2022-10-14T23:24:07.277Z,86.02
2022-10-14T23:26:36.176Z,85.79
2022-10-14T23:29:11.408Z,86.45
2022-10-14T23:31:39.989Z,86.03
2022-10-14T23:34:13.055Z,85.13
2022-10-14T23:36:41.080Z,85.47
2022-10-14T23:39:08.365Z,85.90
2022-10-14T23:41:35.319Z,86.69
2022-10-14T23:44:02.880Z,86.30
2022-10-14T23:46:29.929Z,86.40
2022-10-14T23:49:07.233Z,86.25
2022-10-14T23:51:35.554Z,86.00
2022-10-14T23:54:02.707Z,85.27
2022-10-14T23:56:29.681Z,85.75
2022-10-14T23:58:56.608Z,86.83
